createdAt,value
2017-10-24T00:00:20.178Z,10.07
2017-10-24T00:02:48.117Z,10.20
2017-10-24T00:05:16.072Z,9.87
2017-10-24T00:07:44.033Z,9.90
2017-10-24T00:10:11.982Z,10.63
2017-10-24T00:12:39.908Z,9.57
2017-10-24T00:15:07.859Z,10.53
2017-10-24T00:17:35.828Z,10.03
2017-10-24T00:20:03.892Z,11.10
2017-10-24T00:22:32.119Z,10.47
2017-10-24T00:25:00.047Z,11.00
2017-10-24T00:27:27.955Z,10.53
2017-10-24T00:29:56.184Z,10.23
2017-10-24T00:32:24.112Z,11.10
2017-10-24T00:34:52.054Z,10.77
2017-10-24T00:37:19.995Z,10.60
2017-10-24T00:39:47.972Z,10.57
2017-10-24T00:42:15.917Z,9.80
2017-10-24T00:44:43.938Z,9.83
2017-10-24T00:47:11.877Z,9.37
2017-10-24T00:49:39.826Z,11.10
2017-10-24T00:52:07.802Z,9.90
2017-10-24T00:54:35.731Z,9.70
2017-10-24T00:57:03.670Z,10.03
2017-10-24T00:59:31.619Z,8.30
2017-10-24T01:02:00.304Z,10.00
2017-10-24T01:04:28.244Z,8.13
2017-10-24T01:06:56.230Z,8.97
2017-10-24T01:09:24.858Z,9.00
2017-10-24T01:11:52.799Z,8.67
2017-10-24T01:14:20.743Z,8.37
2017-10-24T01:16:48.695Z,9.23
2017-10-24T01:19:16.632Z,9.80
2017-10-24T01:21:44.599Z,9.23
2017-10-24T01:24:12.533Z,9.20
2017-10-24T01:26:40.509Z,9.17
2017-10-24T01:29:08.455Z,10.10
2017-10-24T01:31:36.394Z,9.70
2017-10-24T01:34:04.313Z,9.40
2017-10-24T01:36:32.281Z,10.13
2017-10-24T01:39:00.210Z,10.60
2017-10-24T01:41:28.149Z,10.30
2017-10-24T01:43:56.247Z,9.40
2017-10-24T01:46:24.201Z,9.63
2017-10-24T01:48:52.133Z,10.30
2017-10-24T01:51:20.166Z,9.20
2017-10-24T01:53:48.107Z,11.00
2017-10-24T01:56:16.035Z,10.70
2017-10-24T01:58:44.014Z,11.27
2017-10-24T02:01:11.972Z,10.43
2017-10-24T02:03:39.934Z,9.20
2017-10-24T02:06:08.832Z,9.63
2017-10-24T02:08:36.822Z,9.70
2017-10-24T02:11:04.766Z,9.90
2017-10-24T02:13:32.706Z,8.87
2017-10-24T02:16:00.663Z,12.57
2017-10-24T02:18:28.602Z,9.37
2017-10-24T02:20:56.527Z,9.10
2017-10-24T02:23:24.470Z,9.40
2017-10-24T02:25:52.492Z,9.90
2017-10-24T02:28:20.444Z,9.00
2017-10-24T02:30:48.359Z,9.30
2017-10-24T02:33:16.309Z,8.23
2017-10-24T02:35:44.249Z,9.00
2017-10-24T02:38:12.189Z,9.37
2017-10-24T02:40:40.116Z,9.90
2017-10-24T02:43:08.027Z,8.43
2017-10-24T02:45:35.975Z,9.17
2017-10-24T02:48:03.932Z,9.50
2017-10-24T02:50:31.878Z,8.90
2017-10-24T02:52:59.813Z,8.03
2017-10-24T02:55:27.724Z,8.70
2017-10-24T02:57:55.665Z,8.87
2017-10-24T03:00:23.567Z,9.60
2017-10-24T03:02:51.503Z,8.70
2017-10-24T03:05:19.433Z,8.70
2017-10-24T03:07:47.433Z,7.30
2017-10-24T03:10:16.034Z,9.53
2017-10-24T03:12:43.986Z,7.67
2017-10-24T03:15:11.998Z,8.63
2017-10-24T03:17:39.931Z,8.20
2017-10-24T03:20:07.871Z,8.13
2017-10-24T03:22:35.802Z,9.13
2017-10-24T03:25:03.741Z,9.47
2017-10-24T03:27:31.675Z,9.30
2017-10-24T03:29:59.682Z,9.20
2017-10-24T03:32:27.621Z,9.03
2017-10-24T03:34:55.550Z,8.30
2017-10-24T03:37:23.500Z,10.60
2017-10-24T03:39:51.460Z,9.23
2017-10-24T03:42:19.411Z,8.77
2017-10-24T03:44:47.756Z,10.03
2017-10-24T03:47:15.671Z,8.23
2017-10-24T03:49:43.618Z,9.10
2017-10-24T03:52:11.569Z,8.97
2017-10-24T03:54:39.507Z,8.70
2017-10-24T03:57:07.474Z,10.17
2017-10-24T03:59:35.414Z,10.23
2017-10-24T04:02:03.364Z,9.43
2017-10-24T04:04:31.321Z,9.43
2017-10-24T04:06:59.314Z,9.40
2017-10-24T04:09:27.244Z,8.83
2017-10-24T04:11:55.216Z,9.33
2017-10-24T04:14:23.129Z,9.50
2017-10-24T04:16:51.062Z,8.73
2017-10-24T04:19:19.161Z,10.17
2017-10-24T04:21:47.071Z,8.63
2017-10-24T04:24:14.999Z,9.30
2017-10-24T04:26:42.931Z,9.33
2017-10-24T04:29:10.878Z,9.97
2017-10-24T04:31:38.809Z,9.67
2017-10-24T04:34:06.788Z,9.47
2017-10-24T04:36:34.738Z,10.10
2017-10-24T04:39:02.666Z,8.47
2017-10-24T04:41:30.621Z,8.57
2017-10-24T04:43:58.942Z,9.50
2017-10-24T04:46:26.887Z,10.17
2017-10-24T04:48:54.818Z,10.53
2017-10-24T04:51:22.771Z,11.27
2017-10-24T04:53:50.731Z,9.90
2017-10-24T04:56:18.651Z,9.83
2017-10-24T04:58:46.579Z,11.60
2017-10-24T05:01:14.522Z,10.27
2017-10-24T05:03:42.452Z,9.37
2017-10-24T05:06:10.439Z,10.23
2017-10-24T05:08:38.354Z,10.30
2017-10-24T05:11:06.310Z,10.10
2017-10-24T05:13:34.278Z,10.30
2017-10-24T05:16:02.225Z,10.80
2017-10-24T05:18:30.385Z,10.80
2017-10-24T05:20:58.326Z,11.57
2017-10-24T05:23:26.318Z,11.10
2017-10-24T05:25:54.257Z,10.63
2017-10-24T05:28:22.205Z,12.17
2017-10-24T05:30:50.163Z,12.30
2017-10-24T05:33:18.135Z,10.60
2017-10-24T05:35:46.112Z,10.77
2017-10-24T05:38:14.055Z,11.13
2017-10-24T05:40:42.042Z,11.50
2017-10-24T05:43:09.968Z,11.77
2017-10-24T05:45:37.939Z,13.03
2017-10-24T05:48:05.882Z,12.00
2017-10-24T05:50:33.828Z,12.93
2017-10-24T05:53:01.763Z,11.83
2017-10-24T05:55:29.706Z,11.73
2017-10-24T05:57:57.762Z,11.50
2017-10-24T06:00:26.011Z,12.33
2017-10-24T06:02:53.974Z,11.70
2017-10-24T06:05:21.989Z,13.03
2017-10-24T06:07:50.024Z,12.77
2017-10-24T06:10:18.141Z,13.60
2017-10-24T06:12:46.139Z,11.70
2017-10-24T06:15:14.091Z,13.83
2017-10-24T06:17:42.037Z,13.23
2017-10-24T06:20:09.990Z,13.27
2017-10-24T06:22:37.958Z,13.53
2017-10-24T06:25:05.902Z,14.73
2017-10-24T06:27:34.623Z,13.73
2017-10-24T06:30:02.554Z,15.57
2017-10-24T06:32:30.488Z,14.67
2017-10-24T06:34:59.059Z,16.20
2017-10-24T06:37:27.033Z,17.17
2017-10-24T06:39:55.704Z,16.87
2017-10-24T06:42:24.261Z,17.07
2017-10-24T06:44:52.235Z,17.33
2017-10-24T06:47:20.913Z,15.10
2017-10-24T06:49:48.821Z,16.50
2017-10-24T06:52:16.815Z,16.60
2017-10-24T06:54:44.791Z,17.00
2017-10-24T06:57:12.785Z,20.70
2017-10-24T06:59:40.774Z,18.50
2017-10-24T07:02:08.710Z,17.93
2017-10-24T07:04:36.636Z,19.17
2017-10-24T07:07:04.613Z,18.07
2017-10-24T07:09:32.835Z,20.23
2017-10-24T07:12:00.842Z,18.83
2017-10-24T07:14:28.779Z,17.90
2017-10-24T07:16:56.715Z,18.70
2017-10-24T07:19:24.636Z,19.50
2017-10-24T07:21:52.592Z,19.30
2017-10-24T07:24:20.513Z,22.33
2017-10-24T07:26:48.446Z,22.10
2017-10-24T07:31:51.534Z,21.90
2017-10-24T07:34:19.462Z,25.03
2017-10-24T07:36:47.388Z,24.50
2017-10-24T07:39:15.357Z,24.37
2017-10-24T07:41:43.296Z,24.93
2017-10-24T07:44:11.642Z,23.87
2017-10-24T07:46:39.675Z,23.83
2017-10-24T07:49:07.612Z,23.77
2017-10-24T07:51:35.633Z,22.37
2017-10-24T07:54:03.565Z,23.07
2017-10-24T07:56:31.508Z,23.30
2017-10-24T07:58:59.447Z,23.23
2017-10-24T08:01:27.550Z,23.30
2017-10-24T08:03:55.496Z,25.90
2017-10-24T08:06:23.468Z,22.97
2017-10-24T08:08:51.397Z,22.93
2017-10-24T08:11:19.335Z,25.80
2017-10-24T08:13:47.331Z,24.53
2017-10-24T08:16:15.269Z,24.97
2017-10-24T08:18:43.233Z,23.53
2017-10-24T08:21:11.242Z,24.83
2017-10-24T08:23:39.202Z,23.73
2017-10-24T08:26:07.140Z,23.80
2017-10-24T08:28:35.087Z,23.80
2017-10-24T08:31:03.042Z,22.77
2017-10-24T08:33:31.080Z,22.97
2017-10-24T08:35:59.001Z,23.70
2017-10-24T08:38:26.940Z,23.93
2017-10-24T08:40:55.029Z,23.47
2017-10-24T08:43:22.985Z,22.40
2017-10-24T08:45:50.904Z,22.00
2017-10-24T08:48:18.861Z,23.57
2017-10-24T08:50:46.827Z,22.30
2017-10-24T08:53:14.823Z,20.70
2017-10-24T08:55:42.766Z,23.03
2017-10-24T08:58:10.684Z,22.20
2017-10-24T09:00:38.663Z,22.20
2017-10-24T09:03:06.632Z,23.43
2017-10-24T09:05:37.400Z,22.50
2017-10-24T09:08:05.364Z,23.93
2017-10-24T09:14:05.211Z,22.10
2017-10-24T09:16:40.846Z,20.70
2017-10-24T09:22:20.891Z,20.50
2017-10-24T09:24:48.898Z,21.73
2017-10-24T09:27:16.806Z,22.03
2017-10-24T09:29:44.776Z,23.20
2017-10-24T09:32:12.827Z,21.33
2017-10-24T09:34:41.081Z,21.80
2017-10-24T09:37:09.038Z,22.03
2017-10-24T09:39:37.005Z,22.60
2017-10-24T09:42:04.957Z,23.00
2017-10-24T09:44:33.015Z,22.60
2017-10-24T09:47:00.927Z,20.80
2017-10-24T09:49:28.858Z,22.40
2017-10-24T09:51:56.839Z,22.40
2017-10-24T09:54:24.755Z,21.53
2017-10-24T09:56:52.798Z,22.30
2017-10-24T09:59:36.407Z,22.67
2017-10-24T10:02:04.360Z,21.27
2017-10-24T10:04:32.318Z,21.60
2017-10-24T10:07:02.009Z,22.83
2017-10-24T10:09:29.941Z,22.60
2017-10-24T10:11:57.887Z,22.00
2017-10-24T10:14:25.839Z,20.50
2017-10-24T10:16:53.910Z,19.67
2017-10-24T10:19:21.828Z,20.27
2017-10-24T10:21:51.383Z,21.33
2017-10-24T10:24:36.407Z,20.77
2017-10-24T10:27:04.371Z,19.97
2017-10-24T10:29:32.338Z,22.10
2017-10-24T10:32:00.380Z,21.80
2017-10-24T10:34:28.352Z,21.37
2017-10-24T10:36:56.277Z,18.10
2017-10-24T10:39:24.202Z,17.67
2017-10-24T10:41:52.161Z,17.10
2017-10-24T10:44:20.100Z,16.60
2017-10-24T10:46:48.062Z,18.00
2017-10-24T10:49:15.984Z,16.90
2017-10-24T10:51:43.937Z,16.10
2017-10-24T10:54:12.056Z,14.03
2017-10-24T10:56:40.032Z,15.03
2017-10-24T10:59:08.239Z,15.33
2017-10-24T11:01:36.166Z,15.20
2017-10-24T11:04:04.109Z,15.83
2017-10-24T11:06:32.030Z,16.53
2017-10-24T11:08:59.977Z,15.53
2017-10-24T11:11:27.925Z,16.60
2017-10-24T11:13:55.828Z,15.90
2017-10-24T11:16:23.791Z,16.83
2017-10-24T11:18:51.747Z,16.27
2017-10-24T11:21:19.734Z,15.20
2017-10-24T11:23:47.695Z,14.97
2017-10-24T11:26:15.677Z,11.47
2017-10-24T11:28:43.585Z,12.90
2017-10-24T11:31:11.514Z,12.40
2017-10-24T11:33:39.464Z,14.07
2017-10-24T11:36:07.392Z,13.60
2017-10-24T11:38:35.322Z,14.30
2017-10-24T11:41:03.361Z,13.43
2017-10-24T11:43:31.534Z,13.60
2017-10-24T11:45:59.531Z,16.60
2017-10-24T11:48:27.458Z,13.23
2017-10-24T11:50:55.415Z,13.60
2017-10-24T11:53:23.371Z,13.80
2017-10-24T11:55:51.351Z,14.90
2017-10-24T11:58:19.285Z,14.03
2017-10-24T12:00:47.224Z,13.27
2017-10-24T12:03:15.189Z,14.87
2017-10-24T12:05:43.140Z,14.80
2017-10-24T12:08:11.078Z,14.67
2017-10-24T12:10:39.086Z,14.50
2017-10-24T12:13:07.207Z,14.30
2017-10-24T12:15:35.173Z,14.47
2017-10-24T12:18:03.141Z,14.67
2017-10-24T12:20:31.190Z,16.30
2017-10-24T12:22:59.118Z,14.73
2017-10-24T12:25:27.305Z,13.63
2017-10-24T12:27:55.683Z,14.87
2017-10-24T12:30:23.825Z,14.40
2017-10-24T12:32:51.855Z,14.30
2017-10-24T12:35:19.904Z,14.30
2017-10-24T12:37:47.877Z,15.60
2017-10-24T12:40:16.601Z,14.80
2017-10-24T12:42:44.868Z,13.40
2017-10-24T12:45:23.631Z,13.60
2017-10-24T12:47:51.742Z,14.20
2017-10-24T12:50:30.602Z,13.73
2017-10-24T12:52:58.544Z,14.00
2017-10-24T12:55:26.503Z,15.30
2017-10-24T12:57:54.460Z,14.50
2017-10-24T13:00:22.433Z,13.80
2017-10-24T13:02:50.462Z,14.87
2017-10-24T13:05:19.195Z,14.03
2017-10-24T13:07:47.132Z,14.57
2017-10-24T13:10:15.104Z,14.33
2017-10-24T13:12:43.089Z,14.87
2017-10-24T13:15:11.016Z,15.13
2017-10-24T13:17:38.943Z,14.77
2017-10-24T13:20:06.862Z,14.90
2017-10-24T13:22:35.099Z,15.67
2017-10-24T13:25:03.021Z,18.13
2017-10-24T13:27:31.120Z,14.23
2017-10-24T13:29:59.107Z,15.13
2017-10-24T13:32:27.081Z,17.27
2017-10-24T13:34:55.026Z,16.17
2017-10-24T13:37:22.949Z,16.83
2017-10-24T13:39:50.991Z,16.90
2017-10-24T13:42:18.974Z,16.27
2017-10-24T13:44:47.268Z,16.00
2017-10-24T13:47:15.232Z,14.20
2017-10-24T13:49:43.313Z,15.20
2017-10-24T13:52:11.253Z,16.07
2017-10-24T13:54:39.223Z,16.90
2017-10-24T13:57:07.289Z,15.47
2017-10-24T13:59:35.249Z,15.30
2017-10-24T14:02:03.231Z,16.07
2017-10-24T14:04:36.736Z,14.83
2017-10-24T14:07:10.257Z,15.40
2017-10-24T14:09:43.840Z,16.00
2017-10-24T14:12:12.004Z,15.77
2017-10-24T14:14:39.965Z,17.80
2017-10-24T14:17:07.919Z,16.87
2017-10-24T14:19:35.893Z,17.60
2017-10-24T14:22:03.846Z,16.47
2017-10-24T14:24:31.846Z,13.90
2017-10-24T14:26:59.761Z,14.80
2017-10-24T14:29:27.683Z,13.77
2017-10-24T14:31:56.665Z,15.10
2017-10-24T14:34:24.647Z,15.13
2017-10-24T14:36:53.167Z,16.70
2017-10-24T14:39:21.098Z,14.57
2017-10-24T14:41:49.022Z,15.87
2017-10-24T14:44:16.979Z,15.10
2017-10-24T14:46:44.991Z,15.03
2017-10-24T14:49:12.956Z,16.30
2017-10-24T14:51:40.890Z,16.60
2017-10-24T14:54:08.839Z,16.03
2017-10-24T14:56:36.814Z,17.37
2017-10-24T14:59:04.859Z,17.63
2017-10-24T15:01:32.790Z,17.43
2017-10-24T15:04:00.748Z,19.90
2017-10-24T15:06:29.061Z,19.80
2017-10-24T15:08:57.172Z,19.90
2017-10-24T15:11:25.167Z,20.30
2017-10-24T15:13:53.139Z,21.57
2017-10-24T15:16:21.115Z,21.47
2017-10-24T15:18:49.166Z,21.87
2017-10-24T15:21:17.114Z,22.83
2017-10-24T15:23:45.115Z,22.93
2017-10-24T15:26:13.052Z,24.07
2017-10-24T15:28:41.008Z,21.57
2017-10-24T15:31:09.001Z,21.07
2017-10-24T15:33:36.952Z,22.60
2017-10-24T15:36:04.964Z,23.97
2017-10-24T15:38:32.908Z,22.27
2017-10-24T15:41:00.922Z,21.73
2017-10-24T15:43:28.957Z,24.60
2017-10-24T15:45:57.326Z,24.47
2017-10-24T15:48:25.404Z,23.40
2017-10-24T15:50:53.419Z,24.80
2017-10-24T15:53:21.991Z,22.57
2017-10-24T15:55:50.172Z,25.43
2017-10-24T15:58:18.850Z,26.70
2017-10-24T16:00:47.121Z,24.50
2017-10-24T16:03:15.084Z,22.40
2017-10-24T16:05:43.098Z,24.83
2017-10-24T16:08:11.171Z,25.73
2017-10-24T16:10:39.143Z,24.00
2017-10-24T16:13:07.088Z,27.20
2017-10-24T16:15:35.068Z,24.40
2017-10-24T16:18:02.997Z,25.40
2017-10-24T16:20:31.109Z,26.57
2017-10-24T16:22:59.762Z,26.70
2017-10-24T16:25:27.777Z,25.83
2017-10-24T16:27:55.736Z,26.67
2017-10-24T16:30:23.723Z,26.73
2017-10-24T16:32:51.832Z,29.37
2017-10-24T16:35:19.764Z,26.37
2017-10-24T16:37:47.718Z,24.60
2017-10-24T16:40:15.670Z,27.30
2017-10-24T16:42:43.679Z,27.37
2017-10-24T16:45:11.661Z,28.33
2017-10-24T16:47:39.593Z,27.30
2017-10-24T16:50:07.520Z,28.30
2017-10-24T16:52:35.533Z,29.60
2017-10-24T16:55:03.477Z,29.80
2017-10-24T16:57:31.955Z,29.00
2017-10-24T17:00:00.056Z,30.30
2017-10-24T17:02:27.999Z,29.47
2017-10-24T17:04:55.966Z,33.27
2017-10-24T17:07:23.924Z,28.33
2017-10-24T17:09:51.856Z,30.57
2017-10-24T17:12:19.798Z,30.70
2017-10-24T17:14:47.801Z,31.03
2017-10-24T17:17:15.717Z,31.80
2017-10-24T17:19:43.734Z,31.97
2017-10-24T17:22:12.298Z,33.93
2017-10-24T17:24:40.327Z,29.73
2017-10-24T17:27:08.332Z,30.93
2017-10-24T17:29:36.285Z,32.50
2017-10-24T17:32:04.251Z,31.07
2017-10-24T17:34:32.194Z,30.40
2017-10-24T17:37:00.173Z,33.80
2017-10-24T17:39:28.292Z,31.77
2017-10-24T17:41:56.283Z,34.20
2017-10-24T17:44:24.415Z,31.70
2017-10-24T17:46:52.334Z,33.17
2017-10-24T17:49:20.291Z,30.43
2017-10-24T17:51:48.234Z,32.20
2017-10-24T17:54:16.197Z,32.20
2017-10-24T17:56:44.118Z,29.40
2017-10-24T17:59:12.079Z,33.00
2017-10-24T18:01:40.038Z,33.17
2017-10-24T18:04:07.995Z,32.50
2017-10-24T18:06:36.003Z,29.03
2017-10-24T18:09:04.155Z,29.60
2017-10-24T18:11:34.752Z,28.20
2017-10-24T18:14:02.655Z,28.10
2017-10-24T18:16:30.607Z,26.73
2017-10-24T18:18:58.574Z,26.20
2017-10-24T18:21:26.523Z,25.97
2017-10-24T18:23:54.817Z,26.00
2017-10-24T18:26:22.769Z,24.77
2017-10-24T18:28:50.786Z,28.30
2017-10-24T18:31:18.873Z,25.77
2017-10-24T18:33:46.856Z,27.30
2017-10-24T18:36:14.817Z,27.60
2017-10-24T18:38:42.799Z,29.20
2017-10-24T18:41:10.755Z,27.13
2017-10-24T18:43:38.734Z,29.63
2017-10-24T18:46:06.696Z,26.00
2017-10-24T18:48:34.643Z,27.47
2017-10-24T18:51:02.576Z,28.30
2017-10-24T18:53:30.545Z,27.90
2017-10-24T18:55:58.595Z,29.23
2017-10-24T18:58:29.528Z,29.10
2017-10-24T19:00:58.640Z,28.80
2017-10-24T19:03:26.580Z,27.13
2017-10-24T19:05:54.960Z,28.63
2017-10-24T19:08:23.075Z,28.60
2017-10-24T19:10:51.043Z,29.17
2017-10-24T19:13:19.055Z,30.53
2017-10-24T19:15:47.052Z,30.00
2017-10-24T19:18:15.228Z,31.83
2017-10-24T19:20:43.364Z,32.90
2017-10-24T19:23:11.295Z,31.10
2017-10-24T19:25:39.783Z,33.20
2017-10-24T19:28:07.703Z,33.67
2017-10-24T19:30:35.709Z,31.10
2017-10-24T19:33:03.692Z,32.67
2017-10-24T19:35:31.665Z,33.90
2017-10-24T19:37:59.744Z,73.83
2017-10-24T19:40:27.743Z,47.77
2017-10-24T19:42:55.863Z,33.93
2017-10-24T19:45:23.823Z,33.63
2017-10-24T19:47:51.763Z,32.00
2017-10-24T19:50:19.719Z,31.57
2017-10-24T19:52:47.780Z,31.10
2017-10-24T19:55:15.839Z,31.47
2017-10-24T19:57:43.844Z,30.87
2017-10-24T20:00:11.857Z,31.73
2017-10-24T20:02:39.828Z,32.67
2017-10-24T20:05:07.760Z,30.93
2017-10-24T20:07:36.296Z,30.00
2017-10-24T20:10:04.263Z,29.90
2017-10-24T20:12:32.207Z,43.83
2017-10-24T20:15:00.141Z,29.80
2017-10-24T20:17:28.093Z,30.33
2017-10-24T20:19:56.627Z,26.93
2017-10-24T20:22:24.562Z,27.47
2017-10-24T20:24:52.587Z,25.10
2017-10-24T20:27:20.604Z,25.20
2017-10-24T20:29:48.556Z,23.27
2017-10-24T20:32:16.672Z,24.47
2017-10-24T20:34:44.675Z,24.60
2017-10-24T20:37:12.659Z,25.20
2017-10-24T20:39:40.695Z,23.17
2017-10-24T20:42:08.629Z,24.00
2017-10-24T20:44:36.578Z,23.10
2017-10-24T20:47:04.522Z,25.23
2017-10-24T20:49:32.481Z,29.17
2017-10-24T20:52:00.407Z,43.53
2017-10-24T20:54:28.415Z,25.00
2017-10-24T20:56:56.357Z,25.97
2017-10-24T20:59:24.290Z,25.30
2017-10-24T21:01:52.314Z,27.00
2017-10-24T21:04:20.284Z,25.10
2017-10-24T21:06:48.202Z,26.17
2017-10-24T21:09:16.170Z,26.97
2017-10-24T21:11:44.096Z,28.03
2017-10-24T21:14:12.054Z,27.90
2017-10-24T21:16:39.988Z,29.70
2017-10-24T21:19:07.935Z,27.00
2017-10-24T21:21:35.873Z,27.43
2017-10-24T21:24:03.828Z,32.63
2017-10-24T21:26:31.765Z,30.47
2017-10-24T21:28:59.807Z,30.23
2017-10-24T21:31:27.789Z,30.20
2017-10-24T21:33:55.719Z,29.63
2017-10-24T21:36:23.670Z,28.47
2017-10-24T21:38:51.650Z,29.70
2017-10-24T21:41:19.574Z,31.13
2017-10-24T21:43:47.662Z,31.50
2017-10-24T21:46:15.826Z,31.63
2017-10-24T21:48:43.801Z,33.43
2017-10-24T21:51:12.305Z,32.90
2017-10-24T21:53:40.270Z,32.17
2017-10-24T21:56:08.283Z,31.57
2017-10-24T21:58:36.239Z,30.83
2017-10-24T22:01:04.304Z,29.67
2017-10-24T22:03:32.227Z,29.00
2017-10-24T22:06:00.187Z,29.70
2017-10-24T22:08:28.123Z,27.40
2017-10-24T22:10:56.062Z,25.30
2017-10-24T22:13:25.703Z,27.80
2017-10-24T22:15:54.665Z,24.77
2017-10-24T22:18:22.634Z,24.00
2017-10-24T22:20:50.602Z,23.00
2017-10-24T22:23:18.543Z,22.37
2017-10-24T22:25:46.490Z,21.53
2017-10-24T22:28:14.409Z,21.77
2017-10-24T22:30:42.361Z,21.67
2017-10-24T22:33:10.307Z,22.43
2017-10-24T22:35:38.241Z,22.30
2017-10-24T22:38:06.259Z,21.87
2017-10-24T22:40:34.181Z,21.30
2017-10-24T22:43:02.129Z,22.40
2017-10-24T22:45:30.079Z,21.17
2017-10-24T22:47:59.316Z,22.20
2017-10-24T22:50:27.268Z,19.50
2017-10-24T22:52:55.383Z,20.90
2017-10-24T22:55:23.442Z,21.47
2017-10-24T22:57:51.545Z,17.20
2017-10-24T23:00:19.979Z,18.00
2017-10-24T23:02:48.068Z,18.00
2017-10-24T23:05:15.988Z,17.50
2017-10-24T23:07:43.978Z,16.67
2017-10-24T23:10:11.936Z,17.87
2017-10-24T23:12:39.926Z,18.27
2017-10-24T23:15:07.865Z,16.87
2017-10-24T23:17:35.796Z,17.87
2017-10-24T23:20:03.760Z,17.10
2017-10-24T23:22:39.901Z,16.43
2017-10-24T23:25:07.874Z,18.17
2017-10-24T23:27:35.774Z,17.30
2017-10-24T23:30:03.771Z,19.10
2017-10-24T23:32:31.717Z,17.37
2017-10-24T23:34:59.744Z,19.17
2017-10-24T23:37:27.816Z,18.40
2017-10-24T23:39:55.805Z,18.67
2017-10-24T23:42:23.786Z,19.30
2017-10-24T23:44:51.927Z,18.60
2017-10-24T23:47:19.864Z,19.13
2017-10-24T23:49:47.900Z,18.30
2017-10-24T23:52:15.861Z,21.30
2017-10-24T23:54:44.052Z,19.30
2017-10-24T23:57:12.011Z,18.83
2017-10-24T23:59:39.972Z,18.20
